Terminal Aerodrome Forecast
Issued by NWS

Home | Current Version | Previous Version | Text Only | Print | Product List | Glossary On
Versions: 1 2 3 4 5 6 7 8 9 10 11 12 13 14
000
FTAK31 PAJN 042322
TAFAGY
TAF
PAGY 042322Z 0500/0524 21020KT P6SM FEW060 BKN080
     FM050600 21010G18KT P6SM BKN060
     FM050900 21010G18KT P6SM -RA BKN035 OVC060
     FM052100 21015G25KT 5SM -RA BR BKN025 OVC035
      AMD LTD TO CLD VIS AND WIND=

USA.gov is the U.S. government's official web portal to all federal, state and local government web resources and services.